createdAt,value
2018-04-23T00:00:52.183Z,8.00
2018-04-23T00:05:54.773Z,8.07
2018-04-23T00:10:57.239Z,10.43
2018-04-23T00:15:59.748Z,9.97
2018-04-23T00:21:02.320Z,9.67
2018-04-23T00:26:04.803Z,10.47
2018-04-23T00:31:08.340Z,11.30
2018-04-23T00:36:10.880Z,10.93
2018-04-23T00:41:13.431Z,11.57
2018-04-23T00:46:16.176Z,13.27
2018-04-23T00:51:18.716Z,12.17
2018-04-23T00:56:21.204Z,12.20
2018-04-23T01:01:23.690Z,11.10
2018-04-23T01:06:26.248Z,12.37
2018-04-23T01:11:28.795Z,11.40
2018-04-23T01:16:31.934Z,12.10
2018-04-23T01:21:34.439Z,12.43
2018-04-23T01:26:37.043Z,11.50
2018-04-23T01:31:39.597Z,12.37
2018-04-23T01:36:42.113Z,12.87
2018-04-23T01:41:44.627Z,12.60
2018-04-23T01:46:47.109Z,13.37
2018-04-23T01:51:49.586Z,16.30
2018-04-23T01:56:52.057Z,14.37
2018-04-23T02:01:54.554Z,13.70
2018-04-23T02:06:57.008Z,14.93
2018-04-23T02:11:59.544Z,15.00
2018-04-23T02:17:02.025Z,15.30
2018-04-23T02:22:04.483Z,14.37
2018-04-23T02:27:07.059Z,13.57
2018-04-23T02:32:09.583Z,15.30
2018-04-23T02:37:12.109Z,15.80
2018-04-23T02:42:14.662Z,15.50
2018-04-23T02:47:17.182Z,16.90
2018-04-23T02:52:19.645Z,16.70
2018-04-23T02:57:22.190Z,15.83
2018-04-23T03:02:24.654Z,15.63
2018-04-23T03:07:27.138Z,14.17
2018-04-23T03:12:29.613Z,13.43
2018-04-23T03:17:32.080Z,12.07
2018-04-23T03:22:34.544Z,13.77
2018-04-23T03:27:37.049Z,12.13
2018-04-23T03:32:39.605Z,12.37
2018-04-23T03:37:42.111Z,12.00
2018-04-23T03:42:44.700Z,15.43
2018-04-23T03:47:47.212Z,13.50
2018-04-23T03:52:49.681Z,14.87
2018-04-23T03:57:52.165Z,16.30
2018-04-23T04:02:54.691Z,16.30
2018-04-23T04:07:57.187Z,15.20
2018-04-23T04:13:11.515Z,14.43
2018-04-23T04:18:34.750Z,15.33
2018-04-23T04:23:37.261Z,13.23
2018-04-23T04:28:39.776Z,13.50
2018-04-23T04:33:43.149Z,12.27
2018-04-23T04:38:45.628Z,12.63
2018-04-23T04:43:48.097Z,12.33
2018-04-23T04:48:50.550Z,11.70
2018-04-23T04:53:53.003Z,10.63
2018-04-23T04:58:57.627Z,10.10
2018-04-23T05:04:02.418Z,9.03
2018-04-23T05:09:05.074Z,8.67
2018-04-23T05:14:07.672Z,7.80
2018-04-23T05:19:10.231Z,7.20
2018-04-23T05:24:12.747Z,6.60
2018-04-23T05:29:15.232Z,6.57
2018-04-23T05:34:17.681Z,8.00
2018-04-23T05:39:20.150Z,9.37
2018-04-23T05:44:22.930Z,7.77
2018-04-23T05:49:25.407Z,6.93
2018-04-23T05:54:27.917Z,11.33
2018-04-23T05:59:30.495Z,10.10
2018-04-23T06:04:32.950Z,9.03
2018-04-23T06:09:35.399Z,9.70
2018-04-23T06:14:37.990Z,9.53
2018-04-23T06:19:40.607Z,7.57
2018-04-23T06:24:43.225Z,6.43
2018-04-23T06:29:45.776Z,5.90
2018-04-23T06:34:48.335Z,6.63
2018-04-23T06:39:51.028Z,3.97
2018-04-23T06:44:54.117Z,5.93
2018-04-23T06:49:56.581Z,6.50
2018-04-23T06:54:59.078Z,5.00
2018-04-23T07:00:01.545Z,7.93
2018-04-23T07:05:04.047Z,4.60
2018-04-23T07:10:06.948Z,6.57
2018-04-23T07:15:09.621Z,7.77
2018-04-23T07:20:12.137Z,5.27
2018-04-23T07:25:14.630Z,7.77
2018-04-23T07:30:17.104Z,7.40
2018-04-23T07:35:19.799Z,4.60
2018-04-23T07:40:22.884Z,8.93
2018-04-23T07:45:25.359Z,11.93
2018-04-23T07:50:27.930Z,6.93
2018-04-23T07:55:30.483Z,4.83
2018-04-23T08:00:33.004Z,5.83
2018-04-23T08:05:35.465Z,7.80
2018-04-23T08:10:38.066Z,7.57
2018-04-23T08:15:40.581Z,7.07
2018-04-23T08:20:43.075Z,7.63
2018-04-23T08:25:45.547Z,5.93
2018-04-23T08:30:48.940Z,9.03
2018-04-23T08:35:51.413Z,7.00
2018-04-23T08:40:53.906Z,5.83
2018-04-23T08:45:56.370Z,4.93
2018-04-23T08:50:59.571Z,5.73
2018-04-23T08:56:02.072Z,6.00
2018-04-23T09:01:04.603Z,15.27
2018-04-23T09:06:07.082Z,8.40
2018-04-23T09:11:09.657Z,10.27
2018-04-23T09:16:12.160Z,8.13
2018-04-23T09:21:14.716Z,9.70
2018-04-23T09:26:17.196Z,9.33
2018-04-23T09:31:19.667Z,10.03
2018-04-23T09:36:22.149Z,9.33
2018-04-23T09:41:24.606Z,7.80
2018-04-23T09:46:27.067Z,11.37
2018-04-23T09:51:29.606Z,10.90
2018-04-23T09:56:32.082Z,15.87
2018-04-23T10:01:34.566Z,11.13
2018-04-23T10:06:37.466Z,11.30
2018-04-23T10:11:39.969Z,9.87
2018-04-23T10:16:42.472Z,12.97
2018-04-23T10:21:45.786Z,11.03
2018-04-23T10:26:48.309Z,11.03
2018-04-23T10:31:50.789Z,12.50
2018-04-23T10:36:53.253Z,9.77
2018-04-23T10:41:55.881Z,11.40
2018-04-23T10:46:58.355Z,11.93
2018-04-23T10:52:00.800Z,7.07
2018-04-23T10:57:03.230Z,8.93
2018-04-23T11:02:05.697Z,8.40
2018-04-23T11:07:08.253Z,7.73
2018-04-23T11:12:10.771Z,8.33
2018-04-23T11:17:13.266Z,6.53
2018-04-23T11:22:15.732Z,8.13
2018-04-23T11:27:18.178Z,7.63
2018-04-23T11:37:46.397Z,8.27
2018-04-23T11:42:48.896Z,8.57
2018-04-23T11:47:51.402Z,10.60
2018-04-23T11:52:53.885Z,12.60
2018-04-23T11:57:56.420Z,11.60
2018-04-23T12:02:58.942Z,10.27
2018-04-23T12:08:01.648Z,11.00
2018-04-23T12:13:04.141Z,10.43
2018-04-23T12:18:06.626Z,11.03
2018-04-23T12:23:09.172Z,11.80
2018-04-23T12:28:11.742Z,11.03
2018-04-23T12:33:14.256Z,12.57
2018-04-23T12:38:16.724Z,8.83
2018-04-23T12:43:19.226Z,13.10
2018-04-23T12:48:21.702Z,10.87
2018-04-23T12:53:24.286Z,11.53
2018-04-23T12:58:26.878Z,10.67
2018-04-23T13:03:29.476Z,12.03
2018-04-23T13:08:32.040Z,10.50
2018-04-23T13:13:34.642Z,7.80
2018-04-23T13:18:37.228Z,10.27
2018-04-23T13:23:39.770Z,8.67
2018-04-23T13:28:42.362Z,9.90
2018-04-23T13:33:44.895Z,10.50
2018-04-23T13:38:47.895Z,11.60
2018-04-23T13:43:50.479Z,10.03
2018-04-23T13:48:53.013Z,9.40
2018-04-23T13:53:55.677Z,9.80
2018-04-23T13:58:58.290Z,13.27
2018-04-23T14:04:00.871Z,13.60
2018-04-23T14:09:03.817Z,9.23
2018-04-23T14:14:06.671Z,12.83
2018-04-23T14:19:09.300Z,7.53
2018-04-23T14:24:12.066Z,8.33
2018-04-23T14:29:14.721Z,10.77
2018-04-23T14:34:17.520Z,10.60
2018-04-23T14:39:20.012Z,7.13
2018-04-23T14:44:22.607Z,10.47
2018-04-23T14:49:25.213Z,6.57
2018-04-23T14:54:27.878Z,8.77
2018-04-23T14:59:30.406Z,9.80
2018-04-23T15:04:32.882Z,7.40
2018-04-23T15:09:35.357Z,5.67
2018-04-23T15:14:37.938Z,5.80
2018-04-23T15:19:40.529Z,12.63
2018-04-23T15:24:43.073Z,6.90
2018-04-23T15:29:45.539Z,8.17
2018-04-23T15:34:48.003Z,5.13
2018-04-23T15:39:50.498Z,6.43
2018-04-23T15:44:52.963Z,8.03
2018-04-23T15:49:55.433Z,6.23
2018-04-23T15:54:57.887Z,4.37
2018-04-23T16:00:00.687Z,4.73
2018-04-23T16:05:03.239Z,4.00
2018-04-23T16:10:05.920Z,5.60
2018-04-23T16:15:08.693Z,4.97
2018-04-23T16:20:12.963Z,4.47
2018-04-23T16:25:15.462Z,5.83
2018-04-23T16:30:18.036Z,5.03
2018-04-23T16:35:20.757Z,4.67
2018-04-23T16:40:23.212Z,7.17
2018-04-23T16:45:28.358Z,6.30
2018-04-23T16:50:30.825Z,6.67
2018-04-23T16:55:33.389Z,3.10
2018-04-23T17:00:36.021Z,3.17
2018-04-23T17:05:38.512Z,3.17
2018-04-23T17:10:41.023Z,4.00
2018-04-23T17:15:43.565Z,3.60
2018-04-23T17:20:46.099Z,3.10
2018-04-23T17:25:48.576Z,4.53
2018-04-23T17:30:51.939Z,3.87
2018-04-23T17:35:54.457Z,3.93
2018-04-23T17:40:56.955Z,4.23
2018-04-23T17:45:59.534Z,2.70
2018-04-23T17:51:02.234Z,4.57
2018-04-23T17:56:04.836Z,3.00
2018-04-23T18:01:07.519Z,3.67
2018-04-23T18:06:10.217Z,4.33
2018-04-23T18:11:12.743Z,3.20
2018-04-23T18:16:15.410Z,4.07
2018-04-23T18:21:17.862Z,4.23
2018-04-23T18:26:20.444Z,4.17
2018-04-23T18:31:23.089Z,4.10
2018-04-23T18:36:25.544Z,3.73
2018-04-23T18:41:29.956Z,7.53
2018-04-23T18:46:34.629Z,5.37
2018-04-23T18:51:39.000Z,3.30
2018-04-23T18:56:44.142Z,3.67
2018-04-23T19:01:48.527Z,3.50
2018-04-23T19:06:52.383Z,5.37
2018-04-23T19:11:57.962Z,3.20
2018-04-23T19:17:03.823Z,3.50
2018-04-23T19:22:09.401Z,4.10
2018-04-23T19:27:13.882Z,6.60
2018-04-23T19:32:16.636Z,5.00
2018-04-23T19:37:19.292Z,5.00
2018-04-23T19:42:21.783Z,4.87
2018-04-23T19:47:24.267Z,4.77
2018-04-23T19:52:26.742Z,5.13
2018-04-23T19:57:29.243Z,4.20
2018-04-23T20:02:31.704Z,5.50
2018-04-23T20:07:34.197Z,4.97
2018-04-23T20:12:37.009Z,6.80
2018-04-23T20:17:39.771Z,4.80
2018-04-23T20:22:42.577Z,6.20
2018-04-23T20:27:46.199Z,4.77
2018-04-23T20:32:49.091Z,5.17
2018-04-23T20:37:51.549Z,7.00
2018-04-23T20:42:53.996Z,4.47
2018-04-23T20:47:57.246Z,4.77
2018-04-23T20:52:59.811Z,4.47
2018-04-23T20:58:02.275Z,3.80
2018-04-23T21:03:04.768Z,4.17
2018-04-23T21:08:07.575Z,4.57
2018-04-23T21:13:10.211Z,4.20
2018-04-23T21:18:12.841Z,6.13
2018-04-23T21:23:15.353Z,7.00
2018-04-23T21:28:17.849Z,5.70
2018-04-23T21:33:20.329Z,4.97
2018-04-23T21:38:22.793Z,6.37
2018-04-23T21:43:25.259Z,6.60
2018-04-23T21:48:27.719Z,5.03
2018-04-23T21:53:30.178Z,6.63
2018-04-23T21:58:32.907Z,5.67
2018-04-23T22:03:35.396Z,4.77
2018-04-23T22:08:38.279Z,5.63
2018-04-23T22:13:40.818Z,5.83
2018-04-23T22:18:43.367Z,6.70
2018-04-23T22:23:45.941Z,5.77
2018-04-23T22:28:48.404Z,6.00
2018-04-23T22:33:50.882Z,9.13
2018-04-23T22:38:53.424Z,7.57
2018-04-23T22:43:55.931Z,5.87
2018-04-23T22:48:58.437Z,7.47
2018-04-23T22:54:01.896Z,5.50
2018-04-23T22:59:04.371Z,6.47
2018-04-23T23:04:07.035Z,6.03
2018-04-23T23:09:10.089Z,5.93
2018-04-23T23:14:12.577Z,6.53
2018-04-23T23:19:15.087Z,4.77
2018-04-23T23:24:17.590Z,6.50
2018-04-23T23:29:20.082Z,5.07
2018-04-23T23:34:22.548Z,4.90
2018-04-23T23:39:25.018Z,6.10
2018-04-23T23:44:27.510Z,6.13
2018-04-23T23:49:29.986Z,4.70
2018-04-23T23:54:32.454Z,8.03
2018-04-23T23:59:34.988Z,6.77
